Grenchen, Switzerland
Current Conditions -  °F | °C
As of 10:20 AM on Monday 20 Oct 2014 (Local Time) from LSZG Reporting Station
Haze Haze  
Wind Chill: 54°   Ceiling: Unl
Heat Index: 54°   Visibility: 2.5mi
Dew Point: 54°   Wind: 1mph
Humidity: 100%   Direction: NA
Pressure: 30.21"   Gusts: NA
Location:  47.19°N, 7.39°E
Report Text: LSZG 200820Z VRB01KT 4000 BR NSC 12/12 Q1023 NOSIG
Loading
Personal Weather Stations






























Interactive Weather Map
Tropical Storm Tracking
New forecast layout! Learn more

10-Day Weather Forecast

Advertisements
Track Severe Weather on mobile